Hudson, New Hampshire
Current Conditions -  °F | °C
As of 12:51 PM on Saturday 25 Oct 2014 (Local Time) from KASH Reporting Station
Clear Clear  
Wind Chill: 64°   Ceiling: Unl
Heat Index: 64°   Visibility: 10mi
Dew Point: 35°   Wind: 9mph
Humidity: 34%   Direction: 280°W
Pressure: 29.67"   Gusts: NA
Location:  42.76°N, 71.44°W
Report Text: KASH 251651Z 28008KT 260V320 10SM CLR 18/02 A2967 RMK AO2 T01770016 SLP292 $
Loading
Personal Weather Stations






























Interactive Weather Map
Tropical Storm Tracking
New forecast layout! Learn more

10-Day Weather Forecast

Advertisements
Track Severe Weather on mobile